Latest Weather Observations for Gayndah

IDQ60801

Issued at 7:35 pm EST Friday 31 October 2014 (issued every 30 minutes, with the page automatically refreshed every 10 minutes)

About weather observations | Map of weather stations | Latest weather observations for QLD | Other Formats
Station Details ID: 039066 Name: GAYNDAH AIRPORT Lat: -25.62 Lon: 151.62 Height: 110.9 m
Data from the previous 72 hours. | See also: Recent months at Gayndah
Date/Time
EST
Temp
°C
App
Temp
°C
Dew
Point
Rel
Hum
%
Delta-T
°C
Wind Press
QNH
hPa
Press
MSL
hPa
Rain
since 9 am
mm
Dir
 
Spd
km/h
Gust
km/h
Spd
kts
Gust
kts
31/07:30pm 24.8 23.5 17.3 63 4.7 NE 20 30 11 16 1014.5 1014.0 0.0
31/07:00pm 25.3 22.8 17.0 60 5.2 NE 26 33 14 18 1014.0 1013.6 0.0
31/06:30pm 25.9 23.2 16.5 56 5.8 NNE 26 37 14 20 1013.4 1013.0 0.0
31/06:00pm 27.3 25.1 16.0 50 7.0 NNE 22 32 12 17 1013.1 1012.7 0.0
31/05:30pm 28.6 25.2 15.8 45 7.9 NNE 28 39 15 21 1012.3 1011.9 0.0
31/05:00pm 30.0 26.8 15.3 41 9.1 NNE 26 39 14 21 1011.9 1011.5 0.0
31/04:30pm 31.4 27.9 15.4 38 9.9 NE 28 37 15 20 1011.6 1011.2 0.0
31/04:00pm 32.4 29.1 14.1 33 11.2 NE 24 39 13 21 1011.4 1011.0 0.0
31/03:30pm 33.3 30.2 13.4 30 12.1 NNE 22 35 12 19 1011.4 1011.0 0.0
31/03:00pm 33.0 30.4 13.1 30 12.0 NNE 19 30 10 16 1011.6 1011.2 0.0
31/02:30pm 34.3 31.9 12.6 27 13.1 NNE 17 32 9 17 1011.7 1011.3 0.0
31/02:00pm 33.8 31.2 13.8 30 12.2 NNE 20 28 11 15 1012.0 1011.6 0.0
31/01:30pm 33.1 31.2 14.2 32 11.6 NNE 17 26 9 14 1012.5 1012.1 0.0
31/01:00pm 33.3 31.4 15.3 34 11.2 NNE 19 39 10 21 1012.9 1012.5 0.0
31/12:30pm 32.3 30.3 14.9 35 10.8 N 19 30 10 16 1013.5 1013.1 0.0
31/12:00pm 32.3 30.3 14.9 35 10.8 NNE 19 28 10 15 1014.0 1013.6 0.0
31/11:30am 31.4 30.5 15.8 39 9.7 NNE 15 26 8 14 1014.7 1014.2 0.0
31/11:00am 30.0 29.4 15.7 42 8.9 NNE 13 26 7 14 1015.2 1014.7 0.0
31/10:30am 29.0 28.3 16.5 46 7.8 NE 15 24 8 13 1015.7 1015.2 0.0
31/10:00am 28.9 28.9 17.1 49 7.4 NNE 13 22 7 12 1016.2 1015.7 0.0
31/09:30am 28.0 28.4 17.2 52 6.8 NNE 11 22 6 12 1016.6 1016.1 0.0
31/09:00am 27.4 27.8 17.3 54 6.4 NNE 11 20 6 11 1016.8 1016.3 0.0
31/08:30am 25.6 24.9 16.5 57 5.6 NE 15 20 8 11 1016.8 1016.3 0.0
31/08:00am 24.5 25.3 17.2 63 4.5 N 9 17 5 9 1017.1 1016.6 0.0
31/07:30am 24.1 24.6 17.4 66 4.2 NNE 11 17 6 9 1017.1 1016.6 0.0
31/07:00am 23.8 25.0 18.2 71 3.5 ENE 9 11 5 6 1016.8 1016.3 0.0
31/06:30am 22.4 24.5 19.0 81 2.2 ENE 6 9 3 5 1016.7 1016.2 0.0
31/06:00am 20.8 22.8 18.7 88 1.3 E 6 6 3 3 1016.4 1015.9 0.0
31/05:30am 19.8 22.6 17.9 89 1.2 CALM 0 4 0 2 1016.0 1015.5 0.0
31/05:00am 19.9 22.9 18.4 91 0.9 CALM 0 0 0 0 1015.8 1015.3 0.0
31/04:30am 20.0 22.9 18.1 89 1.2 CALM 0 0 0 0 1015.5 1015.0 0.0
31/04:00am 20.1 21.7 17.9 87 1.4 ENE 6 7 3 4 1015.1 1014.6 0.0
31/03:30am 20.7 23.0 18.5 87 1.4 NNE 4 9 2 5 1015.2 1014.7 0.0
31/03:00am 20.6 22.3 18.4 87 1.4 NE 7 9 4 5 1015.0 1014.5 0.0
31/02:30am 20.7 22.2 18.1 85 1.6 ENE 7 9 4 5 1014.7 1014.2 0.0
31/02:00am 21.3 22.2 18.3 83 1.9 ENE 11 17 6 9 1014.5 1014.0 0.0
31/01:30am 21.6 23.1 18.0 80 2.2 NE 7 13 4 7 1014.9 1014.4 0.0
31/01:00am 22.1 23.0 18.3 79 2.4 ENE 11 19 6 10 1014.8 1014.3 0.0
31/12:30am 22.5 22.7 18.5 78 2.5 NE 15 20 8 11 1015.1 1014.6 0.0
31/12:00am 22.6 21.7 18.2 76 2.8 ENE 20 26 11 14 1014.9 1014.4 0.0
 
Date/Time
EST
Temp
°C
App
Temp
°C
Dew
Point
Rel
Hum
%
Delta-T
°C
Wind Press
QNH
hPa
Press
MSL
hPa
Rain
since 9 am
mm
Dir
 
Spd
km/h
Gust
km/h
Spd
kts
Gust
kts
30/11:30pm 23.0 21.0 17.5 71 3.4 ENE 24 26 13 14 1015.0 1014.5 0.0
30/11:00pm 23.2 22.1 17.4 70 3.6 ENE 19 26 10 14 1014.9 1014.4 0.0
30/10:30pm 23.5 24.2 17.0 67 4.0 ENE 9 13 5 7 1016.1 1015.6 0.0
30/10:00pm 23.8 23.8 17.3 67 4.0 ENE 13 20 7 11 1016.1 1015.6 0.0
30/09:30pm 23.9 23.5 17.2 66 4.2 ENE 15 22 8 12 1015.7 1015.2 0.0
30/09:00pm 24.1 23.7 18.1 69 3.8 NE 17 26 9 14 1015.8 1015.3 0.0
30/08:30pm 24.6 24.0 18.5 69 3.9 NNE 19 26 10 14 1015.3 1014.8 0.0
30/08:00pm 25.3 24.2 17.2 61 5.1 NE 19 24 10 13 1014.9 1014.4 0.0
30/07:30pm 25.7 24.1 17.4 60 5.2 NE 22 32 12 17 1014.6 1014.1 0.0
30/07:00pm 26.3 24.3 17.4 58 5.6 NE 24 33 13 18 1013.9 1013.5 0.0
30/06:30pm 27.2 24.8 17.4 55 6.2 ENE 26 33 14 18 1013.1 1012.7 0.0
30/06:00pm 28.4 25.6 17.3 51 7.0 NE 28 41 15 22 1012.1 1011.7 0.0
30/05:30pm 29.8 26.5 16.9 45 8.1 NE 30 43 16 23 1011.2 1010.8 0.0
30/05:00pm 32.3 30.7 14.0 33 11.2 NE 15 24 8 13 1011.1 1010.7 0.0
30/04:30pm 32.8 32.1 14.4 33 11.3 NNE 11 19 6 10 1011.0 1010.6 0.0
30/04:00pm 32.8 32.5 14.4 33 11.3 NNE 9 19 5 10 1011.2 1010.8 0.0
30/03:30pm 32.8 32.1 14.4 33 11.3 NE 11 19 6 10 1011.3 1010.9 0.0
30/03:00pm 32.9 33.0 14.5 33 11.3 NNE 7 19 4 10 1011.5 1011.1 0.0
30/02:30pm 32.0 31.6 14.2 34 10.9 N 9 17 5 9 1011.8 1011.4 0.0
30/02:00pm 32.9 31.9 14.5 33 11.3 NE 13 24 7 13 1012.3 1011.9 0.0
30/01:30pm 31.8 31.7 14.9 36 10.4 NE 9 19 5 10 1012.7 1012.3 0.0
30/01:00pm 31.2 31.2 15.2 38 9.9 N 9 17 5 9 1013.3 1012.9 0.0
30/12:30pm 30.6 31.1 15.1 39 9.6 NNW 6 19 3 10 1013.9 1013.5 0.0
30/12:00pm 29.4 29.2 14.8 41 8.9 NNE 9 17 5 9 1014.9 1014.4 0.0
30/11:30am 29.9 30.8 16.0 43 8.7 NE 6 17 3 9 1015.3 1014.8 0.0
30/11:00am 29.1 29.0 16.0 45 8.1 NNE 11 19 6 10 1016.0 1015.5 0.0
30/10:30am 28.6 28.2 16.2 47 7.7 NE 13 20 7 11 1016.5 1016.0 0.0
30/10:00am 27.7 28.3 16.9 51 6.8 N 9 19 5 10 1017.0 1016.5 0.0
30/09:30am 25.6 26.2 16.7 58 5.5 NNE 9 15 5 8 1017.7 1017.2 0.0
30/09:00am 25.2 26.1 16.6 59 5.3 N 7 11 4 6 1017.9 1017.4 0.0
30/08:30am 24.7 25.6 16.7 61 4.9 NNE 7 11 4 6 1017.9 1017.4 0.0
30/08:00am 25.4 25.4 17.3 61 5.1 ENE 13 22 7 12 1017.6 1017.1 0.0
30/07:30am 24.8 25.2 17.3 63 4.7 E 11 17 6 9 1017.3 1016.8 0.0
30/07:00am 23.8 24.1 17.8 69 3.8 ENE 13 17 7 9 1017.2 1016.7 0.0
30/06:30am 22.9 23.2 17.8 73 3.2 E 13 17 7 9 1017.0 1016.5 0.0
30/06:00am 21.6 24.2 18.4 82 2.0 E 2 4 1 2 1016.9 1016.4 0.0
30/05:30am 19.7 22.5 18.0 90 1.1 CALM 0 0 0 0 1016.6 1016.1 0.0
30/05:00am 19.7 21.5 17.3 86 1.5 ESE 4 6 2 3 1016.2 1015.7 0.0
30/04:30am 20.3 21.8 17.7 85 1.6 E 6 6 3 3 1015.7 1015.2 0.0
30/04:00am 20.7 22.2 17.7 83 1.9 E 6 7 3 4 1015.5 1015.0 0.0
30/03:30am 21.2 22.9 18.0 82 2.0 E 6 7 3 4 1015.2 1014.7 0.0
30/03:00am 21.1 23.2 18.1 83 1.9 E 4 6 2 3 1015.3 1014.8 0.0
30/02:30am 20.6 22.2 18.2 86 1.5 ENE 7 7 4 4 1015.2 1014.7 0.0
30/02:00am 20.5 21.8 17.5 83 1.8 E 7 9 4 5 1015.1 1014.6 0.0
30/01:30am 20.7 22.0 17.5 82 2.0 E 7 9 4 5 1015.2 1014.7 0.0
30/01:00am 21.1 22.2 17.9 82 2.0 ENE 9 11 5 6 1015.5 1015.0 0.0
30/12:30am 21.5 22.2 17.9 80 2.2 NE 11 15 6 8 1015.6 1015.1 0.0
30/12:00am 21.9 22.2 17.9 78 2.5 ENE 13 17 7 9 1015.8 1015.3 0.0
 
Date/Time
EST
Temp
°C
App
Temp
°C
Dew
Point
Rel
Hum
%
Delta-T
°C
Wind Press
QNH
hPa
Press
MSL
hPa
Rain
since 9 am
mm
Dir
 
Spd
km/h
Gust
km/h
Spd
kts
Gust
kts
29/11:30pm 22.4 22.4 18.2 77 2.6 ENE 15 22 8 12 1016.0 1015.5 0.0
29/11:00pm 22.8 22.3 17.9 74 3.1 ENE 17 22 9 12 1016.1 1015.6 0.0
29/10:30pm 22.7 23.3 17.6 73 3.2 ENE 11 17 6 9 1016.2 1015.7 0.0
29/10:00pm 22.9 23.0 17.4 71 3.4 ENE 13 17 7 9 1016.2 1015.7 0.0
29/09:30pm 23.4 23.1 17.4 69 3.7 ENE 15 17 8 9 1016.1 1015.6 0.0
29/09:00pm 23.9 22.8 17.4 67 4.0 ENE 19 24 10 13 1015.8 1015.3 0.0
29/08:30pm 24.3 22.6 17.3 65 4.4 ENE 22 32 12 17 1015.4 1014.9 0.0
29/08:00pm 24.8 22.4 17.3 63 4.7 E 26 35 14 19 1014.9 1014.4 0.0
29/07:30pm 25.8 24.1 15.8 54 6.1 ENE 19 30 10 16 1014.5 1014.0 0.0
29/07:00pm 26.6 24.2 15.3 50 6.9 E 22 28 12 15 1013.9 1013.5 0.0
29/06:30pm 27.6 24.5 17.5 54 6.4 NE 30 35 16 19 1013.4 1013.0 0.0
29/06:00pm 28.6 26.8 17.8 52 6.9 NE 24 37 13 20 1012.7 1012.3 0.0
29/05:30pm 29.8 26.5 17.9 48 7.6 NE 32 46 17 25 1011.8 1011.4 0.0
29/05:00pm 31.9 29.0 18.8 45 8.6 NE 32 46 17 25 1011.0 1010.6 0.0
29/04:49pm 32.7 30.4 17.7 40 9.7 NE 26 41 14 22 1010.7 1010.3 0.0
29/04:30pm 37.9 33.2 -2.0 8 19.5 SSW 13 20 7 11 1009.9 1009.4 0.0
29/04:00pm 38.0 33.1 -0.3 9 19.3 SW 15 24 8 13 1009.7 1009.2 0.0
29/03:30pm 38.7 35.8 -1.4 8 19.9 WSW 4 15 2 8 1009.6 1009.1 0.0
29/03:00pm 38.7 35.2 -1.4 8 19.9 WSW 7 17 4 9 1009.8 1009.3 0.0
29/02:30pm 38.6 32.2 -1.5 8 19.9 SW 22 28 12 15 1010.1 1009.6 0.0
29/02:00pm 38.5 34.4 0.0 9 19.5 S 11 19 6 10 1010.3 1009.9 0.0
29/01:30pm 38.0 32.1 -1.9 8 19.6 SW 19 30 10 16 1010.7 1010.3 0.0
29/01:00pm 38.1 32.6 -1.9 8 19.7 SSW 17 24 9 13 1011.0 1010.6 0.0
29/12:30pm 37.4 33.4 -2.4 8 19.3 SSW 9 22 5 12 1011.4 1011.0 0.0
29/12:00pm 36.4 32.9 -1.5 9 18.5 SSW 7 17 4 9 1011.9 1011.5 0.0
29/11:30am 36.7 32.8 -1.3 9 18.7 SSW 9 19 5 10 1012.4 1012.0 0.0
29/11:00am 35.5 31.5 -2.2 9 18.1 SSW 9 20 5 11 1012.9 1012.5 0.0
29/10:30am 34.3 29.6 -1.7 10 17.3 SW 13 22 7 12 1013.4 1013.0 0.0
29/10:00am 33.2 29.3 -1.2 11 16.5 SW 9 15 5 8 1013.8 1013.4 0.0
29/09:30am 32.0 27.4 -0.9 12 15.8 S 13 20 7 11 1014.1 1013.7 0.0
29/09:00am 31.6 26.0 -0.1 13 15.3 SW 19 26 10 14 1014.1 1013.7 0.6
29/08:30am 29.5 24.1 1.1 16 13.8 SW 19 28 10 15 1014.3 1013.8 0.4
29/08:00am 28.0 23.7 3.0 20 12.5 SW 15 19 8 10 1014.3 1013.8 0.4
29/07:30am 26.8 23.3 3.3 22 11.7 SW 11 15 6 8 1014.1 1013.7 0.4
29/07:00am 25.6 22.3 6.3 29 10.1 SW 13 22 7 12 1013.9 1013.5 0.4
29/06:30am 23.1 23.5 13.8 55 5.4 WSW 4 7 2 4 1013.6 1013.2 0.4
29/06:00am 21.5 21.0 13.7 61 4.5 W 9 11 5 6 1013.5 1013.1 0.4
29/05:30am 18.9 21.3 17.0 89 1.2 CALM 0 7 0 4 1013.0 1012.6 0.4
29/05:00am 19.2 20.8 17.9 92 0.8 WSW 6 7 3 4 1012.6 1012.2 0.4
29/04:30am 18.9 21.1 16.5 86 1.4 CALM 0 0 0 0 1012.4 1012.0 0.4
29/04:00am 19.8 22.4 17.6 87 1.4 CALM 0 0 0 0 1012.1 1011.7 0.4
29/03:30am 20.3 23.2 18.1 87 1.4 CALM 0 4 0 2 1011.9 1011.5 0.4
29/03:00am 20.1 21.2 17.1 83 1.8 SSE 7 7 4 4 1011.8 1011.4 0.4
29/02:30am 21.2 24.0 18.0 82 2.0 CALM 0 0 0 0 1011.8 1011.4 0.4
29/02:00am 21.5 24.4 18.1 81 2.1 CALM 0 0 0 0 1011.9 1011.5 0.4
29/01:30am 22.0 24.0 18.8 82 2.0 SSE 6 9 3 5 1012.0 1011.6 0.4
29/01:00am 22.6 25.3 18.6 78 2.5 N 2 4 1 2 1012.1 1011.7 0.4
29/12:30am 22.5 25.2 18.7 79 2.4 E 2 6 1 3 1012.1 1011.7 0.4
29/12:00am 23.1 25.7 18.4 75 3.0 E 2 4 1 2 1012.1 1011.7 0.4
 
Date/Time
EST
Temp
°C
App
Temp
°C
Dew
Point
Rel
Hum
%
Delta-T
°C
Wind Press
QNH
hPa
Press
MSL
hPa
Rain
since 9 am
mm
Dir
 
Spd
km/h
Gust
km/h
Spd
kts
Gust
kts
28/11:30pm 23.2 26.0 17.9 72 3.3 CALM 0 0 0 0 1012.3 1011.9 0.4
28/11:00pm 24.4 27.7 19.0 72 3.5 CALM 0 0 0 0 1012.1 1011.7 0.4
28/10:30pm 25.1 28.4 19.0 69 3.9 CALM 0 2 0 1 1012.1 1011.7 0.4
28/10:00pm 25.1 27.4 18.5 67 4.2 E 4 7 2 4 1011.8 1011.4 0.4
28/09:30pm 26.1 27.6 19.0 65 4.6 NE 9 13 5 7 1011.7 1011.3 0.4
28/09:00pm 27.0 28.8 18.8 60 5.3 NNE 7 11 4 6 1011.4 1011.0 0.4
28/08:30pm 28.2 29.2 18.6 56 6.2 ENE 11 19 6 10 1011.0 1010.6 0.4
28/08:00pm 29.3 29.3 17.2 48 7.7 NNE 13 24 7 13 1011.0 1010.6 0.4

Other Formats:

Comma delimited format used in spreadsheet applications
http://www.bom.gov.au/fwo/IDQ60801/IDQ60801.95543.axf

JavaScript Object Notation format (JSON) in row-major order
http://www.bom.gov.au/fwo/IDQ60801/IDQ60801.95543.json